createdAt,value
2019-01-24T00:00:02.413Z,84.21
2019-01-24T00:05:03.117Z,84.16
2019-01-24T00:10:02.609Z,84.06
2019-01-24T00:15:03.027Z,83.98
2019-01-24T00:20:02.493Z,84.0
2019-01-24T00:25:02.907Z,84.1
2019-01-24T00:30:02.519Z,84.14
2019-01-24T00:35:02.948Z,84.06
2019-01-24T00:40:02.367Z,83.94
2019-01-24T00:45:02.814Z,83.87
2019-01-24T00:50:03.153Z,83.89
2019-01-24T00:55:02.586Z,84.03
2019-01-24T01:00:03.026Z,84.03
2019-01-24T01:05:03.150Z,83.93
2019-01-24T01:10:02.570Z,83.85
2019-01-24T01:15:03.015Z,83.77
2019-01-24T01:20:02.343Z,83.8
2019-01-24T01:25:02.793Z,83.92
2019-01-24T01:30:03.252Z,83.9
2019-01-24T01:35:02.665Z,83.79
2019-01-24T01:40:03.085Z,83.7
2019-01-24T01:45:02.509Z,83.66
2019-01-24T01:50:02.943Z,83.76
2019-01-24T01:55:03.420Z,83.87
2019-01-24T02:00:02.794Z,83.84
2019-01-24T02:05:03.144Z,83.72
2019-01-24T02:10:02.562Z,83.66
2019-01-24T02:15:02.905Z,83.69
2019-01-24T02:20:03.350Z,83.75
2019-01-24T02:25:02.770Z,83.79
2019-01-24T02:30:03.243Z,83.73
2019-01-24T02:35:02.730Z,83.62
2019-01-24T02:40:03.180Z,83.6
2019-01-24T02:45:02.606Z,83.71
2019-01-24T02:50:03.663Z,83.75
2019-01-24T02:55:03.067Z,83.7
2019-01-24T03:00:01.658Z,83.61
2019-01-24T03:05:03.036Z,83.54
2019-01-24T03:10:02.453Z,83.62
2019-01-24T03:15:02.942Z,83.74
2019-01-24T03:20:03.350Z,83.75
2019-01-24T03:25:01.871Z,83.59
2019-01-24T03:30:03.345Z,83.53
2019-01-24T03:35:04.395Z,83.55
2019-01-24T03:40:03.084Z,83.69
2019-01-24T03:45:02.478Z,83.75
2019-01-24T03:50:02.828Z,83.75
2019-01-24T03:55:03.209Z,83.58
2019-01-24T04:00:02.925Z,83.57
2019-01-24T04:05:03.342Z,83.61
2019-01-24T04:10:02.754Z,83.69
2019-01-24T04:15:03.204Z,83.67
2019-01-24T04:20:02.556Z,83.61
2019-01-24T04:25:02.963Z,83.5
2019-01-24T04:30:03.401Z,83.49
2019-01-24T04:35:02.824Z,83.55
2019-01-24T04:40:03.306Z,83.61
2019-01-24T04:45:02.689Z,83.59
2019-01-24T04:50:03.124Z,83.49
2019-01-24T04:55:02.628Z,83.4
2019-01-24T05:00:03.009Z,83.44
2019-01-24T05:05:02.417Z,83.54
2019-01-24T05:10:02.897Z,83.58
2019-01-24T05:15:03.330Z,83.54
2019-01-24T05:20:02.656Z,83.43
2019-01-24T05:25:03.063Z,83.31
2019-01-24T05:30:02.479Z,83.31
2019-01-24T05:35:02.928Z,83.43
2019-01-24T05:50:03.417Z,83.29
2019-01-24T05:55:02.863Z,83.28
2019-01-24T06:00:03.295Z,83.35
2019-01-24T06:05:02.698Z,83.42
2019-01-24T06:10:03.165Z,83.41
2019-01-24T06:15:02.519Z,83.2
2019-01-24T06:20:02.876Z,83.19
2019-01-24T06:25:03.261Z,83.27
2019-01-24T06:30:02.671Z,83.42
2019-01-24T06:35:03.123Z,83.61
2019-01-24T06:40:02.536Z,83.62
2019-01-24T06:45:02.880Z,83.5
2019-01-24T06:50:03.326Z,83.5
2019-01-24T06:55:02.732Z,83.59
2019-01-24T07:00:03.430Z,83.68
2019-01-24T07:05:02.847Z,83.73
2019-01-24T07:10:03.256Z,83.66
2019-01-24T07:15:02.606Z,83.53
2019-01-24T07:20:03.021Z,83.52
2019-01-24T07:25:02.433Z,83.61
2019-01-24T07:30:02.874Z,83.69
2019-01-24T07:35:03.222Z,83.71
2019-01-24T07:40:02.638Z,83.6
2019-01-24T07:45:03.139Z,83.48
2019-01-24T07:50:02.592Z,83.49
2019-01-24T07:55:02.943Z,83.63
2019-01-24T08:00:03.594Z,83.71
2019-01-24T08:05:03.016Z,83.69
2019-01-24T08:10:02.435Z,83.59
2019-01-24T08:15:02.768Z,83.62
2019-01-24T08:20:03.250Z,83.7
2019-01-24T08:25:02.733Z,83.78
2019-01-24T08:30:02.264Z,83.78
2019-01-24T08:35:02.699Z,83.57
2019-01-24T08:40:03.144Z,83.47
2019-01-24T08:45:02.558Z,83.47
2019-01-24T08:50:02.899Z,83.52
2019-01-24T08:55:03.245Z,83.64
2019-01-24T09:00:02.653Z,83.59
2019-01-24T09:05:03.008Z,83.46
2019-01-24T09:10:02.418Z,83.44
2019-01-24T09:15:02.766Z,83.53
2019-01-24T09:20:03.241Z,83.61
2019-01-24T09:25:02.665Z,83.72
2019-01-24T09:30:03.074Z,83.63
2019-01-24T09:35:02.518Z,83.5
2019-01-24T09:40:02.937Z,83.49
2019-01-24T09:45:03.375Z,83.59
2019-01-24T09:50:02.787Z,83.68
2019-01-24T09:55:03.392Z,83.69
2019-01-24T10:00:02.861Z,83.6
2019-01-24T10:05:03.305Z,83.51
2019-01-24T10:10:02.716Z,83.52
2019-01-24T10:15:03.064Z,83.61
2019-01-24T10:20:02.586Z,83.68
2019-01-24T10:25:02.928Z,83.61
2019-01-24T10:30:03.312Z,83.55
2019-01-24T10:35:02.688Z,83.53
2019-01-24T10:40:03.137Z,83.57
2019-01-24T10:45:02.552Z,83.68
2019-01-24T10:50:02.998Z,83.64
2019-01-24T10:55:02.452Z,83.48
2019-01-24T11:00:02.868Z,83.42
2019-01-24T11:05:03.307Z,83.39
2019-01-24T11:10:02.723Z,83.44
2019-01-24T11:15:02.352Z,83.58
2019-01-24T11:20:02.834Z,83.57
2019-01-24T11:25:03.226Z,83.45
2019-01-24T11:30:02.690Z,83.37
2019-01-24T11:35:03.093Z,83.36
2019-01-24T11:40:02.501Z,83.46
2019-01-24T11:45:02.858Z,83.58
2019-01-24T11:50:03.300Z,83.59
2019-01-24T11:55:02.703Z,83.45
2019-01-24T12:00:03.053Z,83.4
2019-01-24T12:05:02.476Z,83.39
2019-01-24T12:10:02.862Z,83.45
2019-01-24T12:15:03.268Z,83.58
2019-01-24T12:20:02.668Z,83.59
2019-01-24T12:25:03.015Z,83.48
2019-01-24T12:30:02.435Z,83.43
2019-01-24T12:35:02.822Z,83.49
2019-01-24T12:40:03.318Z,83.59
2019-01-24T12:45:02.740Z,83.65
2019-01-24T12:50:03.063Z,83.61
2019-01-24T12:55:02.402Z,83.46
2019-01-24T13:00:02.860Z,83.4
2019-01-24T13:05:03.507Z,83.42
2019-01-24T13:10:02.877Z,83.47
2019-01-24T13:15:03.255Z,83.67
2019-01-24T13:20:02.587Z,83.69
2019-01-24T13:25:03.095Z,83.3
2019-01-24T13:30:02.558Z,83.29
2019-01-24T13:35:02.977Z,83.31
2019-01-24T13:40:02.395Z,83.42
2019-01-24T13:45:02.856Z,83.57
2019-01-24T13:50:03.322Z,83.57
2019-01-24T13:55:02.696Z,83.5
2019-01-24T14:00:03.044Z,83.49
2019-01-24T14:05:02.466Z,83.53
2019-01-24T14:10:02.903Z,83.6
2019-01-24T14:15:03.263Z,83.74
2019-01-24T14:20:02.657Z,83.71
2019-01-24T14:25:03.010Z,83.6
2019-01-24T14:30:02.422Z,83.54
2019-01-24T14:35:02.869Z,83.52
2019-01-24T14:40:03.320Z,83.61
2019-01-24T14:45:02.728Z,83.66
2019-01-24T14:50:03.069Z,83.58
2019-01-24T14:55:02.404Z,83.53
2019-01-24T15:00:01.936Z,83.52
2019-01-24T15:05:03.374Z,83.63
2019-01-24T15:10:01.958Z,83.7
2019-01-24T15:15:03.442Z,83.65
2019-01-24T15:20:02.853Z,83.59
2019-01-24T15:25:03.237Z,83.5
2019-01-24T15:30:02.613Z,83.45
2019-01-24T15:35:02.966Z,83.57
2019-01-24T15:40:02.483Z,83.56
2019-01-24T15:45:02.829Z,83.48
2019-01-24T15:50:03.273Z,83.42
2019-01-24T15:55:02.685Z,83.41
2019-01-24T16:00:03.061Z,83.43
2019-01-24T16:05:02.461Z,83.54
2019-01-24T16:10:02.896Z,83.54
2019-01-24T16:15:06.000Z,83.4
2019-01-24T16:20:02.338Z,83.37
2019-01-24T16:25:04.196Z,83.34
2019-01-24T16:30:02.715Z,83.44
2019-01-24T16:35:03.166Z,83.53
2019-01-24T16:40:02.615Z,83.48
2019-01-24T16:45:03.031Z,83.37
2019-01-24T16:50:02.477Z,83.34
2019-01-24T16:55:02.897Z,83.42
2019-01-24T17:00:02.524Z,83.5
2019-01-24T17:05:02.986Z,83.48
2019-01-24T17:10:02.473Z,83.42
2019-01-24T17:15:02.827Z,83.37
2019-01-24T17:20:03.264Z,83.41
2019-01-24T17:25:02.597Z,83.51
2019-01-24T17:30:03.028Z,83.54
2019-01-24T17:35:02.482Z,83.4
2019-01-24T17:40:02.986Z,83.33
2019-01-24T17:45:02.734Z,83.31
2019-01-24T17:50:03.074Z,83.39
2019-01-24T17:55:02.464Z,83.44
2019-01-24T18:00:02.952Z,83.45
2019-01-24T18:05:03.481Z,83.33
2019-01-24T18:10:02.981Z,83.32
2019-01-24T18:15:01.644Z,83.38
2019-01-24T18:20:03.049Z,82.67
2019-01-24T18:25:02.469Z,83.01
2019-01-24T18:30:02.818Z,83.02
2019-01-24T18:35:03.262Z,82.94
2019-01-24T18:40:02.648Z,82.96
2019-01-24T18:45:03.017Z,83.11
2019-01-24T18:50:02.460Z,83.18
2019-01-24T18:55:02.792Z,83.22
2019-01-24T19:00:03.122Z,83.13
2019-01-24T19:05:04.271Z,83.11
2019-01-24T19:10:02.763Z,83.15
2019-01-24T19:15:03.099Z,83.27
2019-01-24T19:20:02.530Z,83.33
2019-01-24T19:25:02.876Z,83.21
2019-01-24T19:30:03.213Z,83.16
2019-01-24T19:35:02.638Z,83.2
2019-01-24T19:40:03.091Z,83.29
2019-01-24T19:45:02.417Z,83.37
2019-01-24T19:50:02.891Z,83.38
2019-01-24T19:55:03.281Z,83.26
2019-01-24T20:00:02.746Z,83.25
2019-01-24T20:05:03.306Z,83.35
2019-01-24T20:10:02.820Z,83.43
2019-01-24T20:15:03.252Z,83.48
2019-01-24T20:20:02.666Z,83.4
2019-01-24T20:25:03.096Z,83.27
2019-01-24T20:30:02.521Z,83.27
2019-01-24T20:35:03.077Z,83.43
2019-01-24T20:40:02.710Z,83.5
2019-01-24T20:45:03.141Z,83.47
2019-01-24T20:50:02.591Z,83.38
2019-01-24T20:55:03.012Z,83.4
2019-01-24T21:00:01.579Z,83.46
2019-01-24T21:05:03.067Z,83.57
2019-01-24T21:10:02.582Z,83.6
2019-01-24T21:15:03.032Z,83.46
2019-01-24T21:20:02.557Z,83.4
2019-01-24T21:25:03.008Z,83.4
2019-01-24T21:30:02.414Z,83.45
2019-01-24T21:35:02.859Z,83.57
2019-01-24T21:40:03.687Z,83.62
2019-01-24T21:45:03.274Z,83.53
2019-01-24T21:50:02.761Z,83.47
2019-01-24T21:55:03.206Z,83.48
2019-01-24T22:00:02.649Z,83.51
2019-01-24T22:05:03.062Z,83.6
2019-01-24T22:10:02.588Z,83.53
2019-01-24T22:15:03.034Z,83.42
2019-01-24T22:20:02.451Z,83.42
2019-01-24T22:25:02.830Z,83.52
2019-01-24T22:30:03.228Z,83.59
2019-01-24T22:35:02.651Z,83.63
2019-01-24T22:40:03.100Z,83.54
2019-01-24T22:45:02.518Z,83.41
2019-01-24T22:50:02.964Z,83.45
2019-01-24T22:55:02.383Z,83.51
2019-01-24T23:00:02.848Z,83.55
2019-01-24T23:05:03.270Z,83.5
2019-01-24T23:10:02.777Z,83.37
2019-01-24T23:15:03.269Z,83.3
2019-01-24T23:20:02.758Z,83.4
2019-01-24T23:25:03.199Z,83.48
2019-01-24T23:30:02.612Z,83.5
2019-01-24T23:35:03.052Z,83.42
2019-01-24T23:40:02.578Z,83.34
2019-01-24T23:45:02.213Z,83.38
2019-01-24T23:50:02.635Z,83.49
2019-01-24T23:55:03.086Z,83.51
